Time;durP1;ratioP1;P1;durP2;ratioP2;P2;SDS_P1;SDS_P2;PMS_P1;PMS_P2;Temp;Humidity;BMP_temperature;BMP_pressure;BME280_temperature;BME280_humidity;BME280_pressure;Samples;Min_cycle;Max_cycle;Signal;HPM_P1;HPM_P2
2022/06/13 00:01:49;;;;;;;;;2.00;0.50;;;;;16.44;49.75;101513.06;5000925;28;45377;-80
2022/06/13 00:04:15;;;;;;;;;0.50;0.00;;;;;16.37;50.12;101506.16;5002688;28;45389;-78
2022/06/13 00:06:40;;;;;;;;;1.00;1.00;;;;;16.34;50.01;101516.00;5002588;28;45345;-80
2022/06/13 00:09:06;;;;;;;;;0.00;0.00;;;;;16.34;50.35;101517.81;5010318;28;45339;-79
2022/06/13 00:11:32;;;;;;;;;1.75;0.25;;;;;16.31;50.63;101512.56;5013896;28;45790;-80
2022/06/13 00:13:57;;;;;;;;;1.00;1.00;;;;;16.31;50.72;101512.56;5005096;28;45522;-79
2022/06/13 00:16:24;;;;;;;;;2.00;2.00;;;;;16.17;50.99;101500.50;4995452;28;45383;-79
2022/06/13 00:18:49;;;;;;;;;0.75;0.75;;;;;16.18;52.16;101506.69;4995501;28;46122;-81
2022/06/13 00:21:20;;;;;;;;;2.00;1.50;;;;;16.20;51.66;101514.66;4996167;28;45481;-79
2022/06/13 00:23:47;;;;;;;;;2.25;1.00;;;;;16.15;51.88;101515.69;5002119;28;45466;-78
2022/06/13 00:26:12;;;;;;;;;1.00;1.00;;;;;16.12;51.95;101512.22;4995840;28;45486;-81
2022/06/13 00:28:37;;;;;;;;;0.25;0.25;;;;;16.08;51.81;101514.09;4997538;28;45564;-80
2022/06/13 00:31:03;;;;;;;;;0.00;0.00;;;;;16.05;52.13;101499.97;4996453;28;45458;-79
2022/06/13 00:33:28;;;;;;;;;0.00;0.00;;;;;16.10;52.16;101508.72;5003741;28;45587;-79
2022/06/13 00:35:54;;;;;;;;;1.00;1.00;;;;;16.10;52.52;101520.25;5022557;28;45410;-79
2022/06/13 00:38:19;;;;;;;;;0.75;0.00;;;;;16.07;52.40;101508.81;5014765;28;46217;-80
2022/06/13 00:40:44;;;;;;;;;2.25;1.25;;;;;16.05;52.63;101523.97;5015431;28;45467;-80
2022/06/13 00:43:13;;;;;;;;;0.75;0.75;;;;;16.02;52.62;101519.63;5015786;28;45643;-80
2022/06/13 00:45:39;;;;;;;;;0.00;0.00;;;;;16.02;52.80;101522.28;5006543;28;45592;-79
2022/06/13 00:48:05;;;;;;;;;1.00;1.00;;;;;16.01;53.21;101525.84;4995337;28;45439;-79
2022/06/13 00:50:35;;;;;;;;;1.50;1.50;;;;;15.99;53.51;101517.03;5010352;28;45439;-79
2022/06/13 00:53:06;;;;;;;;;2.00;1.00;;;;;15.95;53.64;101518.03;5018182;28;45478;-79
2022/06/13 00:55:44;;;;;;;;;0.25;0.25;;;;;15.86;54.18;101507.63;5017042;28;45478;-79
2022/06/13 00:58:12;;;;;;;;;1.00;1.00;;;;;15.87;54.47;101506.72;5017293;28;46268;-79
2022/06/13 01:00:40;;;;;;;;;0.50;0.50;;;;;15.84;54.22;101509.47;5016739;28;45356;-79
2022/06/13 01:03:05;;;;;;;;;1.50;1.00;;;;;15.80;54.44;101506.88;5018699;28;45228;-79
2022/06/13 01:05:35;;;;;;;;;1.00;1.00;;;;;15.77;54.55;101495.38;5022096;28;45415;-80
2022/06/13 01:08:03;;;;;;;;;1.00;1.00;;;;;15.77;54.61;101501.59;5016765;28;46197;-79
2022/06/13 01:13:14;;;;;;;;;1.75;1.25;;;;;15.68;55.36;101493.81;4995581;28;45383;-80
2022/06/13 01:16:22;;;;;;;;;1.75;1.75;;;;;15.67;55.28;101494.75;5004595;28;45408;-80
2022/06/13 01:19:11;;;;;;;;;1.00;1.00;;;;;15.65;55.52;101488.56;4994370;28;45484;-79
2022/06/13 01:21:54;;;;;;;;;5.50;1.00;;;;;15.61;55.93;101479.81;4995330;28;45571;-79
2022/06/13 01:24:19;;;;;;;;;1.50;1.00;;;;;15.60;55.87;101493.16;4978893;28;45443;-79
2022/06/13 01:26:59;;;;;;;;;2.25;0.75;;;;;15.60;56.07;101487.84;4991406;28;45586;-78
2022/06/13 01:29:47;;;;;;;;;1.00;1.00;;;;;15.58;56.28;101485.22;4993373;28;45404;-79
2022/06/13 01:32:32;;;;;;;;;3.50;1.00;;;;;15.56;55.64;101480.84;4996950;28;45452;-79
2022/06/13 01:35:06;;;;;;;;;1.00;0.00;;;;;15.52;56.26;101481.84;4993336;28;45409;-79
2022/06/13 01:37:53;;;;;;;;;0.50;0.50;;;;;15.49;56.07;101484.56;4974105;28;45527;-79
2022/06/13 01:40:34;;;;;;;;;2.00;2.00;;;;;15.45;56.63;101481.13;4992373;28;45432;-79
2022/06/13 01:42:59;;;;;;;;;1.00;1.00;;;;;15.43;56.71;101483.81;4990158;28;45488;-78
2022/06/13 01:45:35;;;;;;;;;1.25;1.25;;;;;15.42;56.54;101479.41;4994657;28;45445;-80
2022/06/13 01:48:17;;;;;;;;;2.25;1.00;;;;;15.37;56.38;101473.31;4993158;28;45438;-79
2022/06/13 01:50:59;;;;;;;;;3.25;2.00;;;;;15.36;56.60;101479.56;4990852;28;46080;-80
2022/06/13 01:53:29;;;;;;;;;1.25;1.00;;;;;15.36;57.02;101487.56;4981127;28;45536;-79
2022/06/13 01:56:04;;;;;;;;;0.25;0.25;;;;;15.32;57.10;101480.56;4999923;28;45427;-79
2022/06/13 01:58:45;;;;;;;;;0.75;0.00;;;;;15.32;57.37;101503.66;5018410;28;45464;-78
2022/06/13 02:01:19;;;;;;;;;1.25;0.25;;;;;15.29;57.66;101499.28;5005473;28;45458;-78
2022/06/13 02:03:49;;;;;;;;;1.00;1.00;;;;;15.24;57.62;101493.19;5004468;28;45494;-78
2022/06/13 02:06:33;;;;;;;;;2.50;2.50;;;;;15.24;58.18;101498.50;5000121;28;45385;-79
2022/06/13 02:09:07;;;;;;;;;3.25;3.25;;;;;15.21;58.37;101491.50;4998319;28;45381;-79
2022/06/13 02:11:49;;;;;;;;;1.25;1.00;;;;;15.20;58.42;101499.53;5014416;28;46245;-79
2022/06/13 02:14:39;;;;;;;;;2.00;1.00;;;;;15.20;58.48;101494.19;5017626;28;45673;-79
2022/06/13 02:17:13;;;;;;;;;1.25;1.25;;;;;15.18;59.42;101496.00;5016156;28;45418;-79
2022/06/13 02:19:55;;;;;;;;;1.00;1.00;;;;;15.15;58.93;101488.09;5013791;28;45416;-79
2022/06/13 02:22:35;;;;;;;;;2.00;1.00;;;;;15.12;59.34;101489.03;4998368;28;46103;-78
2022/06/13 02:25:28;;;;;;;;;1.00;1.00;;;;;15.10;59.68;101491.72;4998237;28;45415;-80
2022/06/13 02:28:04;;;;;;;;;5.25;3.00;;;;;15.08;59.87;101490.91;4999869;28;45436;-78
2022/06/13 02:30:36;;;;;;;;;5.50;1.50;;;;;15.07;59.92;101493.59;5010745;28;45595;-79
2022/06/13 02:33:10;;;;;;;;;7.25;4.75;;;;;15.04;60.10;101494.53;5030621;28;46266;-78
2022/06/13 02:35:45;;;;;;;;;4.00;1.25;;;;;15.00;60.11;101492.00;5039729;28;45486;-78
2022/06/13 02:38:21;;;;;;;;;3.00;3.00;;;;;15.00;60.32;101486.69;5038061;28;45460;-80
2022/06/13 02:40:51;;;;;;;;;3.00;3.00;;;;;14.95;60.70;101485.91;5012041;28;45363;-79
2022/06/13 02:43:23;;;;;;;;;5.00;3.75;;;;;14.89;60.72;101477.19;5016785;28;45509;-79
2022/06/13 02:45:54;;;;;;;;;7.00;6.50;;;;;14.92;61.07;101487.75;5016989;28;45471;-80
2022/06/13 02:48:44;;;;;;;;;9.25;5.25;;;;;14.89;60.84;101495.81;5015905;28;45372;-79
2022/06/13 02:51:33;;;;;;;;;8.25;8.25;;;;;14.87;61.42;101489.63;5016930;28;45371;-81
2022/06/13 02:54:13;;;;;;;;;8.25;6.00;;;;;14.86;61.30;101497.66;4997217;28;46404;-78
2022/06/13 02:57:23;;;;;;;;;8.00;8.00;;;;;14.83;61.23;101492.41;4996881;28;45492;-78
2022/06/13 02:59:41;;;;;;;;;12.00;11.75;;;;;14.82;61.59;101495.97;5006251;28;45467;-79
2022/06/13 03:02:11;;;;;;;;;8.75;6.00;;;;;14.77;61.81;101488.09;5017135;28;45393;-79
2022/06/13 03:04:47;;;;;;;;;10.25;7.50;;;;;14.78;61.57;101499.63;4997941;28;45474;-79
2022/06/13 03:07:26;;;;;;;;;6.50;5.25;;;;;14.77;61.68;101500.53;4998772;28;45408;-78
2022/06/13 03:09:59;;;;;;;;;5.75;5.75;;;;;14.74;62.13;101501.47;4997489;28;45497;-79
2022/06/13 03:12:41;;;;;;;;;6.75;6.75;;;;;14.70;62.31;101505.13;5001680;28;45509;-79
2022/06/13 03:15:10;;;;;;;;;6.50;5.25;;;;;14.68;62.17;101507.81;5013252;28;45337;-78
2022/06/13 03:17:44;;;;;;;;;6.25;5.75;;;;;14.68;62.05;101506.94;5018446;28;45547;-78
2022/06/13 03:20:28;;;;;;;;;5.50;5.50;;;;;14.64;62.10;101508.78;4998122;28;45424;-78
2022/06/13 03:23:17;;;;;;;;;8.75;4.75;;;;;14.65;62.16;101512.31;5007041;28;45561;-78
2022/06/13 03:25:45;;;;;;;;;5.50;4.00;;;;;14.63;62.03;101514.16;5016550;28;45336;-78
2022/06/13 03:28:19;;;;;;;;;7.25;4.50;;;;;14.62;62.21;101512.38;5018737;28;45364;-80
2022/06/13 03:30:50;;;;;;;;;4.00;4.00;;;;;14.62;62.36;101518.59;5027089;28;45363;-78
2022/06/13 03:36:26;;;;;;;;;1.50;1.00;;;;;14.58;62.50;101519.53;4995984;28;45379;-79
2022/06/13 03:39:19;;;;;;;;;2.50;1.00;;;;;14.58;62.34;101519.53;4995430;28;45338;-79
2022/06/13 03:41:50;;;;;;;;;6.25;3.75;;;;;14.56;62.60;101524.88;4996389;28;45565;-79
2022/06/13 03:44:40;;;;;;;;;2.75;2.75;;;;;14.54;62.28;101531.13;5009334;28;45428;-80
2022/06/13 03:47:18;;;;;;;;;2.00;1.75;;;;;14.54;62.76;101532.00;5037013;28;46144;-79
2022/06/13 03:49:56;;;;;;;;;1.00;1.00;;;;;14.51;62.69;101523.22;5037417;28;45536;-79
2022/06/13 03:52:23;;;;;;;;;1.25;1.25;;;;;14.55;62.66;101524.91;5017682;28;45419;-78
2022/06/13 03:55:00;;;;;;;;;1.75;1.75;;;;;14.57;62.71;101536.41;4997242;28;45458;-80
2022/06/13 03:57:32;;;;;;;;;5.50;1.25;;;;;14.54;62.81;101528.47;5001537;28;46544;-79
2022/06/13 04:00:12;;;;;;;;;1.25;1.25;;;;;14.54;62.79;101521.38;5015431;28;45389;-80
2022/06/13 04:02:40;;;;;;;;;3.00;2.00;;;;;14.54;63.16;101521.38;5002340;28;45400;-79
2022/06/13 04:05:39;;;;;;;;;5.00;3.00;;;;;14.54;63.20;101525.81;4995344;28;45333;-77
2022/06/13 04:08:06;;;;;;;;;4.00;1.75;;;;;14.56;62.92;101519.56;4999348;28;45888;-77
2022/06/13 04:10:50;;;;;;;;;2.00;1.50;;;;;14.58;63.11;101522.19;5013942;28;45716;-77
2022/06/13 04:13:45;;;;;;;;;5.75;5.00;;;;;14.66;62.80;101530.91;5011155;28;45474;-77
2022/06/13 04:16:38;;;;;;;;;5.75;5.75;;;;;14.74;62.83;101521.00;4994263;28;45396;-76
2022/06/13 04:19:12;;;;;;;;;4.25;4.25;;;;;15.00;62.12;101524.84;4994690;28;45415;-76
2022/06/13 04:21:59;;;;;;;;;5.50;4.50;;;;;15.45;61.12;101526.41;4995499;28;45351;-77
2022/06/13 04:24:25;;;;;;;;;5.00;1.00;;;;;15.91;59.90;101527.91;4996226;28;45319;-76
2022/06/13 04:26:59;;;;;;;;;6.00;2.00;;;;;16.31;58.56;101518.78;4997212;28;45420;-77
2022/06/13 04:29:43;;;;;;;;;5.25;2.75;;;;;16.91;57.31;101524.13;5009257;28;45363;-76
2022/06/13 04:32:18;;;;;;;;;1.00;1.00;;;;;17.38;55.90;101523.50;5025715;28;45269;-76
2022/06/13 04:34:46;;;;;;;;;6.50;2.25;;;;;17.86;54.48;101529.91;5032426;28;45402;-76
2022/06/13 04:37:14;;;;;;;;;2.00;2.00;;;;;18.38;53.28;101527.16;5033843;28;45513;-77
2022/06/13 04:39:42;;;;;;;;;2.75;2.00;;;;;18.86;51.76;101522.66;5034807;28;46617;-75
2022/06/13 04:42:10;;;;;;;;;8.75;2.75;;;;;19.25;50.92;101525.53;5019208;28;45399;-77
2022/06/13 04:44:39;;;;;;;;;2.50;1.75;;;;;19.64;49.81;101514.03;5012543;28;45414;-77
2022/06/13 04:47:06;;;;;;;;;5.00;2.25;;;;;20.12;48.72;101520.03;5012293;28;45585;-77
2022/06/13 04:49:35;;;;;;;;;2.50;1.50;;;;;20.58;47.49;101514.34;5013838;28;47323;-76
2022/06/13 04:52:07;;;;;;;;;2.00;2.00;;;;;21.03;46.30;101525.66;5013944;28;45381;-77
2022/06/13 04:54:47;;;;;;;;;3.50;3.50;;;;;21.39;45.43;101517.63;5014903;28;45517;-76
2022/06/13 04:57:16;;;;;;;;;3.00;3.00;;;;;21.80;44.28;101517.31;5017782;28;45396;-76
2022/06/13 04:59:42;;;;;;;;;2.00;2.00;;;;;22.27;43.88;101529.16;5018871;28;45743;-77
2022/06/13 05:02:33;;;;;;;;;2.00;2.00;;;;;22.77;42.34;101530.06;5008980;28;45423;-77
2022/06/13 05:04:58;;;;;;;;;1.25;1.25;;;;;23.22;41.64;101514.94;4995076;28;45423;-78
2022/06/13 05:07:24;;;;;;;;;4.00;4.00;;;;;23.76;40.86;101527.94;5008877;28;45371;-78
2022/06/13 05:10:02;;;;;;;;;2.75;2.25;;;;;24.01;40.09;101531.00;5004213;28;45423;-77
2022/06/13 05:12:40;;;;;;;;;4.00;2.50;;;;;24.48;39.34;101527.13;5009498;28;45396;-75
2022/06/13 05:15:20;;;;;;;;;3.00;3.00;;;;;24.95;38.04;101534.00;5014995;28;45419;-77
2022/06/13 05:17:52;;;;;;;;;4.25;3.00;;;;;25.33;37.33;101525.22;4998401;28;45484;-76
2022/06/13 05:20:45;;;;;;;;;2.25;1.75;;;;;25.85;36.88;101526.16;4994366;28;46208;-76
2022/06/13 05:23:13;;;;;;;;;3.00;2.50;;;;;26.36;36.04;101514.50;4994677;28;45322;-77
2022/06/13 05:25:48;;;;;;;;;3.75;2.00;;;;;26.71;35.17;101519.22;4997895;28;45402;-77
2022/06/13 05:28:20;;;;;;;;;2.75;2.50;;;;;27.13;34.58;101525.16;4999025;28;45587;-78
2022/06/13 05:30:51;;;;;;;;;3.00;3.00;;;;;27.46;33.59;101520.00;4994973;28;46471;-75
2022/06/13 05:33:21;;;;;;;;;5.00;3.25;;;;;27.79;33.93;101521.09;5013800;28;45926;-77
2022/06/13 05:35:49;;;;;;;;;2.00;2.00;;;;;28.16;32.89;101512.75;5015560;28;45471;-78
2022/06/13 05:38:17;;;;;;;;;2.50;2.00;;;;;28.43;31.78;101519.69;4998089;28;45399;-77
2022/06/13 05:40:44;;;;;;;;;2.50;1.50;;;;;28.68;31.90;101518.56;5012782;28;47331;-77
2022/06/13 05:43:11;;;;;;;;;2.25;2.25;;;;;28.93;31.48;101522.00;5012343;28;45362;-76
2022/06/13 05:45:39;;;;;;;;;4.00;2.00;;;;;29.12;30.49;101522.16;4997821;28;45345;-78
2022/06/13 05:48:10;;;;;;;;;4.00;1.25;;;;;29.31;30.65;101526.94;5006715;28;45562;-78
2022/06/13 05:50:35;;;;;;;;;4.50;2.25;;;;;29.68;29.92;101531.09;5016805;28;46335;-78
2022/06/13 05:53:01;;;;;;;;;4.75;2.75;;;;;29.94;29.90;101529.75;5017404;28;45367;-77
2022/06/13 05:55:26;;;;;;;;;4.25;2.50;;;;;30.33;29.46;101525.47;5021965;28;45400;-78
2022/06/13 05:57:51;;;;;;;;;3.50;3.00;;;;;30.64;29.30;101524.47;5021083;28;45383;-79
2022/06/13 06:00:33;;;;;;;;;4.75;2.25;;;;;30.96;28.53;101527.97;5018242;28;46648;-78
2022/06/13 06:02:58;;;;;;;;;3.50;1.25;;;;;31.20;27.89;101533.06;5028567;28;45652;-79
2022/06/13 06:05:23;;;;;;;;;2.50;2.50;;;;;31.36;27.48;101530.63;5020788;28;45593;-77
2022/06/13 06:07:49;;;;;;;;;2.00;1.00;;;;;31.59;27.51;101535.81;4997862;28;45384;-77
2022/06/13 06:10:21;;;;;;;;;1.25;1.25;;;;;31.73;27.58;101545.41;4997124;28;45984;-78
2022/06/13 06:12:46;;;;;;;;;3.00;1.50;;;;;31.80;27.42;101541.09;4998209;28;45509;-76
2022/06/13 06:15:11;;;;;;;;;3.50;3.00;;;;;31.95;27.14;101532.47;4997008;28;45479;-78
2022/06/13 06:17:37;;;;;;;;;3.50;2.00;;;;;32.17;26.83;101543.03;5006953;28;45352;-77
2022/06/13 06:20:03;;;;;;;;;6.00;4.00;;;;;32.17;26.92;101550.38;5011445;28;45487;-77
2022/06/13 06:22:29;;;;;;;;;4.75;2.25;;;;;32.31;26.88;101551.78;5008897;28;45483;-78
2022/06/13 06:24:54;;;;;;;;;3.25;2.50;;;;;32.56;26.70;101558.44;5016145;28;45404;-76
2022/06/13 06:27:20;;;;;;;;;3.00;3.00;;;;;32.72;26.24;101550.47;5014984;28;45322;-78
2022/06/13 06:29:45;;;;;;;;;1.50;1.00;;;;;32.70;26.55;101549.75;4997698;28;45420;-78
2022/06/13 06:32:11;;;;;;;;;2.00;2.00;;;;;32.90;26.16;101549.63;4999458;28;45553;-80
2022/06/13 06:34:36;;;;;;;;;4.00;3.00;;;;;33.08;25.56;101547.75;5015931;28;45492;-78
2022/06/13 06:37:02;;;;;;;;;3.50;2.75;;;;;32.94;25.68;101551.06;5016719;28;45609;-76
2022/06/13 06:39:27;;;;;;;;;3.75;3.00;;;;;32.59;26.01;101558.13;5031842;28;46566;-77
2022/06/13 06:41:52;;;;;;;;;1.00;0.00;;;;;32.53;26.01;101550.53;5017601;28;45467;-76
2022/06/13 06:44:18;;;;;;;;;5.75;3.75;;;;;32.65;26.40;101560.28;5014038;28;45422;-75
2022/06/13 06:46:43;;;;;;;;;5.25;3.25;;;;;33.03;25.65;101558.34;5014179;28;45508;-75
2022/06/13 06:49:09;;;;;;;;;2.25;1.25;;;;;33.28;25.96;101561.34;5007824;28;45529;-76
2022/06/13 06:51:34;;;;;;;;;2.00;2.00;;;;;33.43;25.21;101562.50;5001286;28;45510;-78
2022/06/13 07:02:11;;;;;;;;;5.75;3.50;;;;;33.42;25.76;101568.16;5016042;28;45514;-86
2022/06/13 07:04:36;;;;;;;;;3.25;3.25;;;;;33.62;24.99;101566.13;5012217;28;45419;-82
2022/06/13 07:07:03;;;;;;;;;3.25;1.25;;;;;33.57;24.07;101568.44;5012075;28;45427;-78
2022/06/13 07:09:28;;;;;;;;;5.50;3.00;;;;;33.72;25.07;101572.38;5013480;28;46305;-78
2022/06/13 07:11:54;;;;;;;;;4.50;4.50;;;;;33.87;25.30;101569.94;5013295;28;45573;-78
2022/06/13 07:14:25;;;;;;;;;3.75;3.75;;;;;33.82;24.53;101575.88;5015366;28;45456;-77
2022/06/13 07:16:51;;;;;;;;;2.50;2.50;;;;;33.56;24.51;101572.22;5012632;28;45569;-78
2022/06/13 07:19:17;;;;;;;;;4.00;4.00;;;;;33.33;25.10;101575.44;5016243;28;45482;-78
2022/06/13 07:21:43;;;;;;;;;3.50;3.00;;;;;33.32;25.27;101570.97;5021240;28;45411;-80
2022/06/13 07:24:08;;;;;;;;;4.00;4.00;;;;;33.54;24.08;101579.72;5025655;28;45687;-78
2022/06/13 07:26:34;;;;;;;;;3.00;3.00;;;;;33.52;24.57;101568.06;5028151;28;45493;-81
2022/06/13 07:28:59;;;;;;;;;3.00;2.00;;;;;33.27;24.40;101562.38;5029222;28;45517;-80
2022/06/13 07:31:32;;;;;;;;;3.75;3.75;;;;;33.38;24.32;101558.53;5017224;28;45432;-80
2022/06/13 07:33:58;;;;;;;;;3.50;2.00;;;;;33.26;24.29;101574.34;5013703;28;45431;-81
2022/06/13 07:36:23;;;;;;;;;4.75;2.75;;;;;33.32;24.69;101579.19;5017616;28;45583;-81
2022/06/13 07:38:49;;;;;;;;;6.25;4.25;;;;;33.10;24.21;101581.34;5017428;28;45415;-78
2022/06/13 07:41:19;;;;;;;;;5.00;3.75;;;;;32.89;24.89;101572.56;5021548;28;45425;-79
2022/06/13 07:43:45;;;;;;;;;6.00;4.00;;;;;33.06;25.07;101571.72;5018319;28;45427;-80
2022/06/13 07:46:12;;;;;;;;;6.00;5.00;;;;;32.85;25.63;101576.59;5023310;28;45618;-79
2022/06/13 07:48:37;;;;;;;;;4.25;3.25;;;;;32.91;26.20;101585.06;5016058;28;46279;-78
2022/06/13 07:51:05;;;;;;;;;5.75;3.00;;;;;33.34;24.49;101568.09;5005320;28;45817;-79
2022/06/13 07:53:31;;;;;;;;;5.00;3.75;;;;;33.59;23.69;101588.34;5029555;28;45546;-79
2022/06/13 07:55:57;;;;;;;;;3.25;2.75;;;;;33.50;23.30;101578.34;5018495;28;45637;-79
2022/06/13 07:58:34;;;;;;;;;3.25;2.00;;;;;33.82;23.60;101584.09;5018286;28;46061;-80
2022/06/13 08:01:00;;;;;;;;;4.25;2.00;;;;;33.99;23.49;101589.72;5015001;28;45605;-80
2022/06/13 08:03:29;;;;;;;;;4.00;4.00;;;;;33.95;22.95;101583.72;5015074;28;45496;-81
2022/06/13 08:05:56;;;;;;;;;4.00;4.00;;;;;34.18;22.94;101595.00;5013662;28;45600;-80
2022/06/13 08:08:22;;;;;;;;;4.75;4.25;;;;;34.43;23.03;101581.44;5026539;28;45332;-80
2022/06/13 08:10:49;;;;;;;;;4.75;2.75;;;;;34.22;21.59;101586.44;5016197;28;45347;-83
2022/06/13 08:13:17;;;;;;;;;1.75;1.75;;;;;33.78;22.41;101592.81;5019991;28;45400;-81
2022/06/13 08:15:46;;;;;;;;;1.50;1.25;;;;;33.62;23.39;101588.88;5029528;28;45382;-80
2022/06/13 08:18:13;;;;;;;;;3.75;3.00;;;;;33.85;23.44;101588.41;5019000;28;45540;-77
2022/06/13 08:20:40;;;;;;;;;3.50;3.25;;;;;34.16;22.76;101586.06;5032890;28;45537;-81
2022/06/13 08:23:14;;;;;;;;;2.00;2.00;;;;;33.82;22.36;101586.00;5021064;28;45566;-81
2022/06/13 08:25:41;;;;;;;;;4.50;2.00;;;;;33.73;22.47;101590.53;5026811;28;45347;-80
2022/06/13 08:28:11;;;;;;;;;2.25;2.00;;;;;32.81;23.03;101599.81;5026119;28;45421;-77
2022/06/13 08:30:43;;;;;;;;;4.25;2.00;;;;;32.78;24.29;101594.63;5027484;28;45500;-78
2022/06/13 08:33:09;;;;;;;;;1.50;1.50;;;;;32.93;23.15;101587.63;5018530;28;45574;-81
2022/06/13 08:35:38;;;;;;;;;3.75;3.75;;;;;33.01;23.63;101593.22;5023340;28;45590;-82
2022/06/13 08:38:04;;;;;;;;;2.25;2.25;;;;;33.10;23.74;101588.69;5028242;28;46896;-80
2022/06/13 08:40:52;;;;;;;;;4.00;3.00;;;;;33.53;23.00;101583.50;5009200;28;46038;-81
2022/06/13 08:43:44;;;;;;;;;2.50;2.00;;;;;34.11;23.74;101582.94;5015210;28;45571;-78
2022/06/13 08:46:39;;;;;;;;;6.75;2.50;;;;;34.37;21.91;101592.22;5013197;28;45554;-81
2022/06/13 08:49:26;;;;;;;;;1.00;1.00;;;;;34.17;22.26;101586.94;5015412;28;46301;-77
2022/06/13 08:51:59;;;;;;;;;4.75;3.50;;;;;34.10;21.67;101583.09;5005980;28;45385;-78
2022/06/13 08:54:32;;;;;;;;;1.00;1.00;;;;;34.08;22.12;101550.38;5022784;28;45648;-80
2022/06/13 08:57:06;;;;;;;;;1.00;1.00;;;;;33.91;21.64;101565.00;5014701;28;45498;-77
2022/06/13 08:59:40;;;;;;;;;5.25;3.50;;;;;33.91;21.90;101575.97;5018634;28;45561;-78
2022/06/13 09:02:20;;;;;;;;;3.00;2.00;;;;;34.29;21.94;101584.81;5003218;28;45521;-79
2022/06/13 09:05:19;;;;;;;;;2.75;2.75;;;;;34.37;21.15;101582.09;5021517;28;45850;-78
2022/06/13 09:08:11;;;;;;;;;4.00;2.50;;;;;34.24;20.52;101581.63;5007038;28;45384;-77
2022/06/13 09:10:47;;;;;;;;;2.00;1.00;;;;;34.03;21.16;101582.03;5014336;28;47526;-76
2022/06/13 09:13:22;;;;;;;;;2.00;1.00;;;;;34.22;21.51;101578.22;5025427;28;45336;-77
2022/06/13 09:16:27;;;;;;;;;1.00;1.00;;;;;34.35;19.99;101582.25;5031483;28;45441;-77
2022/06/13 09:19:01;;;;;;;;;1.00;1.00;;;;;33.61;20.78;101578.09;4972623;28;45580;-80
2022/06/13 09:21:36;;;;;;;;;1.00;1.00;;;;;33.62;20.99;101593.50;4990046;28;45531;-77
2022/06/13 09:24:24;;;;;;;;;2.00;0.75;;;;;33.39;20.43;101582.16;4985105;28;45539;-80
2022/06/13 09:27:17;;;;;;;;;1.00;1.00;;;;;33.28;21.15;101586.88;4980389;28;45551;-78
2022/06/13 09:30:01;;;;;;;;;3.25;2.00;;;;;33.11;21.29;101582.19;4975968;28;45648;-79
2022/06/13 09:32:34;;;;;;;;;2.00;2.00;;;;;33.39;21.31;101595.84;4975227;28;45468;-79
2022/06/13 09:35:22;;;;;;;;;1.75;1.75;;;;;33.77;21.48;101586.47;4973666;28;45525;-77
2022/06/13 09:37:53;;;;;;;;;1.00;1.00;;;;;34.05;20.82;101553.44;4991171;28;45464;-81
2022/06/13 09:40:26;;;;;;;;;0.75;0.75;;;;;34.50;20.22;101588.00;4973334;28;45801;-77
2022/06/13 09:43:10;;;;;;;;;3.00;1.00;;;;;34.59;20.71;101593.50;4973802;28;45607;-77
2022/06/13 09:46:18;;;;;;;;;2.00;2.00;;;;;34.44;20.78;101587.81;4978366;28;45568;-80
2022/06/13 09:49:05;;;;;;;;;2.25;0.75;;;;;34.24;20.42;101587.13;4906028;28;45596;-77
2022/06/13 09:51:47;;;;;;;;;1.25;1.25;;;;;34.31;20.55;101566.28;4910975;28;45506;-77
2022/06/13 09:54:25;;;;;;;;;3.50;3.50;;;;;34.50;19.81;101581.66;4910077;28;45667;-78
2022/06/13 09:56:59;;;;;;;;;2.00;2.00;;;;;34.16;20.10;101594.31;4945585;28;45772;-78
2022/06/13 09:59:53;;;;;;;;;4.00;3.00;;;;;34.12;19.88;101589.31;4940802;28;45666;-77
2022/06/13 10:02:30;;;;;;;;;2.25;2.25;;;;;34.41;19.50;101578.00;4939012;28;45424;-78
2022/06/13 10:05:12;;;;;;;;;2.00;2.00;;;;;34.58;19.61;101581.69;4944146;28;46229;-77
2022/06/13 10:07:48;;;;;;;;;1.75;1.75;;;;;34.35;19.93;101581.41;4942078;28;45688;-77
2022/06/13 10:10:41;;;;;;;;;3.00;1.00;;;;;33.82;20.35;101578.63;4951068;28;45507;-78
2022/06/13 10:13:16;;;;;;;;;1.75;1.75;;;;;33.72;20.71;101594.28;4942500;28;45688;-76
2022/06/13 10:16:15;;;;;;;;;4.50;3.00;;;;;33.72;20.85;101585.19;4950075;28;46917;-77
2022/06/13 10:19:16;;;;;;;;;2.50;2.50;;;;;33.90;21.23;101582.47;4947929;28;45440;-77
2022/06/13 10:22:09;;;;;;;;;2.00;2.00;;;;;34.15;19.65;101583.50;4936276;28;45817;-77
2022/06/13 10:25:11;;;;;;;;;2.25;2.25;;;;;34.41;20.04;101583.50;5017408;28;45546;-78
2022/06/13 10:28:07;;;;;;;;;2.00;1.00;;;;;33.91;19.68;101570.47;5019497;28;45605;-78
2022/06/13 10:30:45;;;;;;;;;1.75;1.75;;;;;33.40;20.32;101571.03;5022206;28;45515;-77
2022/06/13 10:33:39;;;;;;;;;1.75;1.75;;;;;33.27;21.12;101585.13;5009257;28;45736;-80
2022/06/13 10:36:25;;;;;;;;;1.25;1.25;;;;;33.40;20.42;101540.91;5011041;28;45419;-80
2022/06/13 10:39:11;;;;;;;;;4.25;3.00;;;;;33.74;19.35;101575.84;5028075;28;45580;-82
2022/06/13 10:41:41;;;;;;;;;3.00;2.00;;;;;33.52;20.25;101566.19;5019275;28;45512;-81
2022/06/13 10:44:11;;;;;;;;;1.00;1.00;;;;;33.33;20.78;101539.84;5019290;28;45363;-81
2022/06/13 10:46:46;;;;;;;;;2.75;1.50;;;;;33.22;20.90;101567.44;5032359;28;45578;-81
2022/06/13 10:49:17;;;;;;;;;1.00;1.00;;;;;33.14;20.16;101583.78;5034087;28;45387;-78
2022/06/13 10:52:03;;;;;;;;;1.00;1.00;;;;;33.19;20.66;101579.59;5025446;28;45541;-77
2022/06/13 10:54:58;;;;;;;;;1.25;1.00;;;;;33.39;20.64;101577.56;5019772;28;45517;-81
2022/06/13 10:57:39;;;;;;;;;1.00;1.00;;;;;33.59;21.48;101577.41;5019127;28;45613;-81
2022/06/13 11:00:14;;;;;;;;;4.00;2.00;;;;;33.78;20.60;101571.75;5016023;28;46866;-78
2022/06/13 11:02:40;;;;;;;;;2.25;1.00;;;;;33.90;20.80;101560.53;5024922;28;45669;-80
2022/06/13 11:05:09;;;;;;;;;0.75;0.75;;;;;33.94;20.84;101564.69;5022716;28;45779;-80
2022/06/13 11:07:43;;;;;;;;;1.75;1.75;;;;;33.62;20.78;101557.91;5015058;28;45547;-80
2022/06/13 11:10:40;;;;;;;;;2.00;2.00;;;;;33.81;21.50;101567.81;5032894;28;45416;-80
2022/06/13 11:13:15;;;;;;;;;1.75;1.00;;;;;33.98;20.88;101563.31;5011395;28;45646;-79
2022/06/13 11:24:48;;;;;;;;;1.00;1.00;;;;;33.52;20.90;101562.59;5019269;28;45529;-80
2022/06/13 11:27:39;;;;;;;;;1.50;1.50;;;;;33.23;20.77;101572.75;5013422;28;45482;-79
2022/06/13 11:30:29;;;;;;;;;4.75;4.00;;;;;33.11;20.82;101563.03;5021860;28;45542;-78
2022/06/13 11:33:17;;;;;;;;;1.00;1.00;;;;;33.14;22.16;101556.41;5019558;28;46374;-79
2022/06/13 11:35:50;;;;;;;;;0.75;0.75;;;;;33.23;21.08;101564.56;5019856;28;45604;-80
2022/06/13 11:38:20;;;;;;;;;2.00;2.00;;;;;33.31;21.36;101557.44;5020012;28;45470;-78
2022/06/13 11:40:57;;;;;;;;;1.00;0.75;;;;;33.29;21.07;101547.50;5013787;28;45509;-80
2022/06/13 11:43:33;;;;;;;;;1.25;1.00;;;;;33.34;21.19;101565.34;5017083;28;46566;-80
2022/06/13 11:46:02;;;;;;;;;1.00;1.00;;;;;33.30;20.69;101559.34;5014970;28;45301;-79
2022/06/13 11:48:29;;;;;;;;;2.00;2.00;;;;;33.38;19.76;101561.28;5020344;28;45517;-80
2022/06/13 11:51:04;;;;;;;;;1.00;1.00;;;;;33.00;20.87;101557.78;5022995;28;45490;-80
2022/06/13 11:53:38;;;;;;;;;1.25;1.25;;;;;32.59;20.96;101539.00;5016599;28;46151;-81
2022/06/13 11:56:11;;;;;;;;;2.25;2.25;;;;;32.20;21.18;101544.63;5014286;28;45636;-81
2022/06/13 11:58:41;;;;;;;;;1.75;1.00;;;;;31.63;22.23;101561.00;5002716;28;45399;-81
2022/06/13 12:01:26;;;;;;;;;3.00;3.00;;;;;31.55;22.04;101548.03;5021733;28;45721;-80
2022/06/13 12:04:13;;;;;;;;;3.25;3.25;;;;;31.32;22.54;101542.84;5027108;28;46982;-81
2022/06/13 12:06:48;;;;;;;;;2.00;1.50;;;;;30.58;22.83;101530.47;5016458;28;45556;-80
2022/06/13 12:09:24;;;;;;;;;2.00;2.00;;;;;30.10;22.92;101544.72;5013867;28;45482;-80
2022/06/13 12:12:00;;;;;;;;;2.50;2.50;;;;;29.93;23.44;101538.91;5013845;28;45633;-80
2022/06/13 12:14:30;;;;;;;;;2.75;1.75;;;;;29.68;23.94;101544.72;5022393;28;45389;-79
2022/06/13 12:17:20;;;;;;;;;1.25;1.25;;;;;29.48;24.37;101549.16;5022325;28;45402;-80
2022/06/13 12:19:52;;;;;;;;;1.00;1.00;;;;;29.15;24.55;101538.25;5010245;28;45504;-80
2022/06/13 12:22:37;;;;;;;;;1.00;1.00;;;;;28.73;25.51;101542.66;5013694;28;45541;-80